createdAt,value
2023-05-13T00:04:59.960Z,98606.03
2023-05-13T00:10:01.941Z,98600.53
2023-05-13T00:15:04.167Z,98606.88
2023-05-13T00:20:06.921Z,98601.75
2023-05-13T00:25:09.216Z,98592.03
2023-05-13T00:30:11.452Z,98590.59
2023-05-13T00:35:13.450Z,98588.16
2023-05-13T00:40:24.365Z,98590.78
2023-05-13T00:45:26.729Z,98584.13
2023-05-13T00:50:28.649Z,98587.53
2023-05-13T00:55:30.744Z,98592.50
2023-05-13T01:00:36.811Z,98593.22
2023-05-13T01:05:54.431Z,98591.97
2023-05-13T01:11:04.026Z,98596.31
2023-05-13T01:16:30.306Z,98601.63
2023-05-13T01:21:37.335Z,98599.72
2023-05-13T01:26:39.607Z,98603.06
2023-05-13T01:31:43.152Z,98604.41
2023-05-13T01:36:45.814Z,98615.41
2023-05-13T01:41:48.593Z,98617.28
2023-05-13T01:46:53.713Z,98624.84
2023-05-13T01:51:56.645Z,98627.78
2023-05-13T01:56:59.383Z,98627.94
2023-05-13T02:02:01.579Z,98634.34
2023-05-13T02:07:03.777Z,98634.69
2023-05-13T02:12:08.296Z,98632.44
2023-05-13T02:17:11.508Z,98635.22
2023-05-13T02:22:13.446Z,98633.94
2023-05-13T02:27:16.585Z,98635.63
2023-05-13T02:32:18.352Z,98641.38
2023-05-13T02:37:20.389Z,98635.53
2023-05-13T02:42:31.615Z,98633.44
2023-05-13T02:47:33.919Z,98630.72
2023-05-13T02:52:40.243Z,98635.03
2023-05-13T02:57:43.309Z,98635.72
2023-05-13T03:02:45.554Z,98635.06
2023-05-13T03:07:47.483Z,98634.25
2023-05-13T03:12:49.887Z,98640.28
2023-05-13T03:17:51.686Z,98634.09
2023-05-13T03:22:55.294Z,98634.91
2023-05-13T03:27:57.403Z,98640.47
2023-05-13T03:33:02.138Z,98634.44
2023-05-13T03:38:04.216Z,98639.66
2023-05-13T03:43:09.500Z,98645.69
2023-05-13T03:48:13.848Z,98637.22
2023-05-13T03:53:17.035Z,98646.66
2023-05-13T03:58:21.853Z,98647.78
2023-05-13T04:03:23.741Z,98647.06
2023-05-13T04:08:25.863Z,98651.13
2023-05-13T04:13:27.844Z,98658.44
2023-05-13T04:18:31.241Z,98653.03
2023-05-13T04:23:39.968Z,98658.09
2023-05-13T04:28:41.929Z,98661.16
2023-05-13T04:33:45.356Z,98662.91
2023-05-13T04:38:47.967Z,98664.63
2023-05-13T04:43:51.600Z,98669.97
2023-05-13T04:48:53.912Z,98661.59
2023-05-13T04:53:56.160Z,98668.91
2023-05-13T04:58:58.145Z,98674.44
2023-05-13T05:04:00.156Z,98674.91
2023-05-13T05:09:03.824Z,98676.00
2023-05-13T05:14:05.991Z,98682.41
2023-05-13T05:19:08.329Z,98681.50
2023-05-13T05:24:12.480Z,98682.25
2023-05-13T05:29:14.567Z,98684.78
2023-05-13T05:34:18.461Z,98693.88
2023-05-13T05:39:20.681Z,98690.53
2023-05-13T05:44:22.618Z,98702.91
2023-05-13T05:49:24.547Z,98700.47
2023-05-13T05:54:26.588Z,98704.16
2023-05-13T05:59:28.524Z,98691.00
2023-05-13T06:04:31.195Z,98692.53
2023-05-13T06:09:33.354Z,98683.13
2023-05-13T06:14:35.433Z,98686.19
2023-05-13T06:19:37.387Z,98689.09
2023-05-13T06:24:39.250Z,98697.38
2023-05-13T06:29:42.948Z,98688.41
2023-05-13T06:34:48.538Z,98696.13
2023-05-13T06:39:50.774Z,98696.91
2023-05-13T06:44:53.779Z,98703.06
2023-05-13T06:50:04.551Z,98696.53
2023-05-13T06:55:06.927Z,98689.38
2023-05-13T07:00:11.441Z,98695.66
2023-05-13T07:05:13.572Z,98685.47
2023-05-13T07:10:15.662Z,98688.03
2023-05-13T07:15:17.896Z,98680.72
2023-05-13T07:20:22.774Z,98685.28
2023-05-13T07:25:24.954Z,98685.53
2023-05-13T07:30:26.851Z,98681.53
2023-05-13T07:35:28.833Z,98681.75
2023-05-13T07:40:30.761Z,98678.41
2023-05-13T07:45:32.670Z,98676.66
2023-05-13T07:50:36.186Z,98681.38
2023-05-13T07:55:38.317Z,98681.75
2023-05-13T08:00:40.195Z,98681.22
2023-05-13T08:05:42.276Z,98674.00
2023-05-13T08:10:48.382Z,98673.22
2023-05-13T08:15:50.132Z,98666.34
2023-05-13T08:20:52.138Z,98666.56
2023-05-13T08:25:53.977Z,98667.16
2023-05-13T08:31:02.938Z,98666.78
2023-05-13T08:36:05.908Z,98662.53
2023-05-13T08:41:08.084Z,98665.16
2023-05-13T08:46:12.128Z,98666.78
2023-05-13T08:51:14.184Z,98667.16
2023-05-13T08:56:17.176Z,98660.50
2023-05-13T09:01:19.659Z,98665.97
2023-05-13T09:06:22.119Z,98666.78
2023-05-13T09:11:24.459Z,98663.94
2023-05-13T09:16:29.020Z,98661.91
2023-05-13T09:21:35.510Z,98673.25
2023-05-13T09:26:38.378Z,98679.50
2023-05-13T09:31:40.274Z,98682.34
2023-05-13T09:36:43.119Z,98678.50
2023-05-13T09:41:45.273Z,98678.09
2023-05-13T09:46:47.498Z,98677.25
2023-05-13T09:51:49.380Z,98674.84
2023-05-13T09:56:58.780Z,98672.78
2023-05-13T10:02:10.324Z,98664.28
2023-05-13T10:07:13.276Z,98662.28
2023-05-13T10:12:15.550Z,98668.91
2023-05-13T10:17:20.009Z,98663.03
2023-05-13T10:22:31.563Z,98666.31
2023-05-13T10:27:34.608Z,98653.88
2023-05-13T10:32:40.298Z,98647.00
2023-05-13T10:37:51.073Z,98656.03
2023-05-13T10:43:20.679Z,98661.66
2023-05-13T10:48:23.287Z,98664.41
2023-05-13T10:53:36.500Z,98667.28
2023-05-13T10:58:38.504Z,98677.84
2023-05-13T11:03:41.240Z,98680.69
2023-05-13T11:08:45.841Z,98684.19
2023-05-13T11:13:50.796Z,98696.69
2023-05-13T11:18:53.273Z,98686.19
2023-05-13T11:24:02.567Z,98695.34
2023-05-13T11:29:06.237Z,98695.94
2023-05-13T11:34:13.292Z,98690.28
2023-05-13T11:39:19.856Z,98700.22
2023-05-13T11:44:24.015Z,98698.84
2023-05-13T11:49:40.425Z,98696.25
2023-05-13T11:54:45.167Z,98703.13
2023-05-13T11:59:54.671Z,98706.13
2023-05-13T12:05:00.407Z,98718.50
2023-05-13T12:10:04.265Z,98729.84
2023-05-13T12:15:10.816Z,98722.75
2023-05-13T12:20:19.109Z,98732.88
2023-05-13T12:25:41.636Z,98741.34
2023-05-13T12:30:50.237Z,98750.03
2023-05-13T12:35:54.286Z,98748.41
2023-05-13T12:40:56.472Z,98759.78
2023-05-13T12:45:58.307Z,98754.94
2023-05-13T12:51:02.022Z,98760.19
2023-05-13T12:56:04.400Z,98754.13
2023-05-13T13:01:09.611Z,98753.31
2023-05-13T13:06:13.024Z,98752.91
2023-05-13T13:11:21.711Z,98752.31
2023-05-13T13:16:23.899Z,98749.69
2023-05-13T13:21:25.965Z,98744.81
2023-05-13T13:26:27.848Z,98748.03
2023-05-13T13:31:29.691Z,98743.56
2023-05-13T13:36:32.857Z,98751.03
2023-05-13T13:41:34.651Z,98745.16
2023-05-13T13:46:36.530Z,98743.97
2023-05-13T13:51:38.682Z,98744.97
2023-05-13T13:56:40.986Z,98755.31
2023-05-13T14:01:47.151Z,98753.72
2023-05-13T14:06:50.279Z,98742.59
2023-05-13T14:11:52.237Z,98745.41
2023-05-13T14:16:54.231Z,98729.81
2023-05-13T14:21:56.097Z,98743.16
2023-05-13T14:26:59.252Z,98738.72
2023-05-13T14:32:03.450Z,98727.81
2023-05-13T14:37:05.723Z,98731.22
2023-05-13T14:42:07.703Z,98732.63
2023-05-13T14:47:10.604Z,98727.38
2023-05-13T14:52:12.623Z,98729.41
2023-05-13T14:57:14.466Z,98724.34
2023-05-13T15:02:17.659Z,98723.94
2023-05-13T15:07:20.873Z,98725.94
2023-05-13T15:12:22.753Z,98728.97
2023-05-13T15:17:24.622Z,98724.94
2023-05-13T15:22:27.038Z,98716.03
2023-05-13T15:27:29.151Z,98726.97
2023-05-13T15:32:31.193Z,98729.59
2023-05-13T15:37:33.395Z,98729.16
2023-05-13T15:42:35.504Z,98732.13
2023-05-13T15:47:37.765Z,98723.34
2023-05-13T15:52:40.178Z,98726.16
2023-05-13T15:57:42.164Z,98721.28
2023-05-13T16:02:44.354Z,98712.00
2023-05-13T16:07:46.761Z,98715.41
2023-05-13T16:12:49.198Z,98707.13
2023-05-13T16:17:51.166Z,98705.50
2023-05-13T16:22:53.124Z,98698.44
2023-05-13T16:27:56.736Z,98706.91
2023-05-13T16:32:59.173Z,98709.91
2023-05-13T16:38:01.593Z,98712.06
2023-05-13T16:43:04.074Z,98699.31
2023-05-13T16:48:06.523Z,98694.25
2023-05-13T16:53:08.637Z,98690.63
2023-05-13T16:58:10.500Z,98685.38
2023-05-13T17:03:13.625Z,98682.00
2023-05-13T17:08:17.283Z,98671.72
2023-05-13T17:13:19.858Z,98678.19
2023-05-13T17:18:21.677Z,98682.44
2023-05-13T17:23:23.490Z,98681.81
2023-05-13T17:28:25.310Z,98685.22
2023-05-13T17:33:27.656Z,98678.53
2023-05-13T17:38:29.530Z,98680.50
2023-05-13T17:43:31.332Z,98681.66
2023-05-13T17:48:33.338Z,98685.22
2023-05-13T17:53:35.360Z,98688.38
2023-05-13T17:58:37.478Z,98679.47
2023-05-13T18:03:39.322Z,98681.22
2023-05-13T18:08:41.387Z,98690.25
2023-05-13T18:13:43.170Z,98694.50
2023-05-13T18:18:45.199Z,98692.69
2023-05-13T18:23:47.140Z,98690.88
2023-05-13T18:28:49.064Z,98687.88
2023-05-13T18:33:51.162Z,98690.50
2023-05-13T18:38:53.008Z,98702.34
2023-05-13T18:43:54.866Z,98693.63
2023-05-13T18:48:56.830Z,98694.81
2023-05-13T18:53:58.574Z,98706.50
2023-05-13T18:59:00.915Z,98698.00
2023-05-13T19:04:02.845Z,98708.88
2023-05-13T19:09:05.274Z,98710.25
2023-05-13T19:14:07.437Z,98719.66
2023-05-13T19:19:09.472Z,98721.22
2023-05-13T19:24:11.518Z,98717.34
2023-05-13T19:29:13.671Z,98719.53
2023-05-13T19:34:15.542Z,98716.03
2023-05-13T19:39:17.462Z,98721.22
2023-05-13T19:44:19.644Z,98721.97
2023-05-13T19:49:21.528Z,98714.84
2023-05-13T19:54:23.446Z,98715.22
2023-05-13T19:59:25.351Z,98720.81
2023-05-13T20:04:27.205Z,98718.22
2023-05-13T20:09:30.692Z,98719.81
2023-05-13T20:14:47.105Z,98714.59
2023-05-13T20:19:50.968Z,98713.97
2023-05-13T20:24:54.552Z,98714.97
2023-05-13T20:30:00.585Z,98717.59
2023-05-13T20:35:03.670Z,98717.75
2023-05-13T20:40:06.433Z,98723.38
2023-05-13T20:45:08.822Z,98713.91
2023-05-13T20:50:11.260Z,98718.31
2023-05-13T20:55:15.494Z,98717.31
2023-05-13T21:00:17.866Z,98712.91
2023-05-13T21:05:19.969Z,98716.31
2023-05-13T21:10:22.462Z,98708.66
2023-05-13T21:15:24.572Z,98711.28
2023-05-13T21:20:26.534Z,98712.91
2023-05-13T21:25:28.359Z,98707.31
2023-05-13T21:30:32.266Z,98716.97
2023-05-13T21:35:33.989Z,98719.75
2023-05-13T21:40:38.487Z,98715.69
2023-05-13T21:45:40.680Z,98715.69
2023-05-13T21:50:43.593Z,98707.22
2023-05-13T21:55:45.407Z,98709.41
2023-05-13T22:00:47.557Z,98716.44
2023-05-13T22:05:49.506Z,98714.38
2023-05-13T22:10:51.383Z,98705.72
2023-05-13T22:15:53.630Z,98705.09
2023-05-13T22:20:55.783Z,98708.69
2023-05-13T22:25:57.824Z,98712.50
2023-05-13T22:30:59.940Z,98706.66
2023-05-13T22:36:01.780Z,98697.38
2023-05-13T22:41:03.614Z,98695.09
2023-05-13T22:46:05.528Z,98692.41
2023-05-13T22:51:07.388Z,98695.75
2023-05-13T22:56:09.491Z,98686.19
2023-05-13T23:01:11.468Z,98687.56
2023-05-13T23:06:13.613Z,98683.50
2023-05-13T23:11:16.580Z,98684.84
2023-05-13T23:16:19.088Z,98677.81
2023-05-13T23:21:21.057Z,98674.84
2023-05-13T23:26:24.923Z,98669.25
2023-05-13T23:31:26.965Z,98664.03
2023-05-13T23:36:28.870Z,98663.84
2023-05-13T23:41:30.834Z,98654.19
2023-05-13T23:46:32.727Z,98656.44
2023-05-13T23:51:38.512Z,98645.00
2023-05-13T23:56:40.433Z,98640.75
